createdAt,value
2022-11-12T00:00:28.952Z,7.35
2022-11-12T00:03:17.802Z,6.50
2022-11-12T00:06:06.579Z,6.70
2022-11-12T00:08:54.968Z,6.22
2022-11-12T00:11:46.437Z,7.15
2022-11-12T00:14:34.693Z,7.20
2022-11-12T00:17:23.570Z,7.40
2022-11-12T00:20:12.450Z,6.43
2022-11-12T00:23:01.286Z,6.88
2022-11-12T00:25:49.570Z,6.50
2022-11-12T00:28:40.939Z,6.80
2022-11-12T00:31:29.493Z,7.70
2022-11-12T00:34:18.020Z,6.88
2022-11-12T00:37:07.041Z,6.75
2022-11-12T00:39:55.364Z,6.80
2022-11-12T00:42:43.897Z,6.65
2022-11-12T00:45:35.422Z,7.65
2022-11-12T00:48:24.487Z,7.10
2022-11-12T00:51:13.562Z,7.18
2022-11-12T00:54:02.919Z,7.18
2022-11-12T00:56:51.690Z,7.25
2022-11-12T00:59:40.068Z,7.25
2022-11-12T01:02:32.322Z,7.05
2022-11-12T01:05:23.441Z,7.05
2022-11-12T01:08:12.348Z,7.32
2022-11-12T01:11:07.037Z,7.45
2022-11-12T01:13:57.944Z,7.15
2022-11-12T01:16:46.670Z,7.05
2022-11-12T01:19:38.042Z,6.82
2022-11-12T01:22:26.580Z,7.00
2022-11-12T01:25:15.330Z,7.57
2022-11-12T01:28:03.857Z,6.63
2022-11-12T01:30:52.045Z,6.47
2022-11-12T01:33:40.890Z,7.03
2022-11-12T01:36:34.909Z,6.43
2022-11-12T01:39:23.521Z,6.40
2022-11-12T01:42:12.965Z,7.28
2022-11-12T01:45:01.488Z,6.85
2022-11-12T01:47:53.408Z,6.50
2022-11-12T01:50:42.793Z,6.97
2022-11-12T01:53:35.490Z,8.05
2022-11-12T01:56:25.086Z,6.97
2022-11-12T01:59:18.676Z,6.57
2022-11-12T02:02:07.704Z,7.15
2022-11-12T02:04:57.604Z,6.40
2022-11-12T02:07:47.768Z,5.97
2022-11-12T02:10:39.243Z,7.13
2022-11-12T02:13:40.447Z,6.90
2022-11-12T02:16:32.013Z,6.57
2022-11-12T02:19:20.676Z,6.60
2022-11-12T02:22:12.200Z,7.00
2022-11-12T02:25:00.966Z,6.88
2022-11-12T02:27:51.927Z,6.40
2022-11-12T02:30:42.347Z,6.88
2022-11-12T02:33:30.996Z,6.53
2022-11-12T02:36:19.640Z,6.53
2022-11-12T02:39:10.829Z,6.53
2022-11-12T02:41:59.403Z,6.47
2022-11-12T02:44:48.370Z,6.32
2022-11-12T02:47:37.275Z,5.60
2022-11-12T02:50:25.677Z,6.68
2022-11-12T02:53:14.211Z,5.68
2022-11-12T02:56:05.816Z,5.80
2022-11-12T02:58:54.410Z,5.20
2022-11-12T03:01:42.764Z,6.00
2022-11-12T03:04:31.570Z,5.35
2022-11-12T03:07:20.064Z,6.07
2022-11-12T03:10:09.959Z,6.50
2022-11-12T03:13:03.420Z,5.78
2022-11-12T03:15:52.033Z,5.65
2022-11-12T03:18:40.437Z,4.97
2022-11-12T03:21:28.933Z,5.50
2022-11-12T03:24:17.657Z,5.55
2022-11-12T03:27:06.461Z,4.50
2022-11-12T03:29:57.585Z,5.75
2022-11-12T03:32:46.135Z,5.00
2022-11-12T03:35:34.906Z,5.40
2022-11-12T03:38:24.015Z,5.82
2022-11-12T03:41:12.924Z,4.82
2022-11-12T03:44:01.808Z,4.78
2022-11-12T03:46:53.014Z,5.28
2022-11-12T03:49:41.539Z,5.13
2022-11-12T03:52:30.182Z,5.32
2022-11-12T03:55:20.389Z,4.90
2022-11-12T03:58:09.209Z,5.43
2022-11-12T04:00:57.923Z,4.88
2022-11-12T04:03:48.749Z,4.93
2022-11-12T04:06:50.173Z,4.75
2022-11-12T04:09:38.617Z,5.20
2022-11-12T04:12:40.014Z,5.82
2022-11-12T04:15:28.717Z,4.32
2022-11-12T04:18:29.845Z,5.43
2022-11-12T04:21:33.606Z,4.55
2022-11-12T04:24:36.431Z,4.30
2022-11-12T04:27:26.681Z,4.80
2022-11-12T04:30:19.447Z,5.45
2022-11-12T04:33:08.358Z,4.82
2022-11-12T04:35:57.228Z,5.10
2022-11-12T04:38:48.397Z,5.40
2022-11-12T04:41:49.492Z,5.93
2022-11-12T04:44:50.117Z,5.75
2022-11-12T04:47:40.485Z,5.50
2022-11-12T04:50:29.345Z,6.82
2022-11-12T04:53:18.214Z,6.47
2022-11-12T04:56:09.997Z,5.53
2022-11-12T04:58:58.353Z,6.35
2022-11-12T05:01:47.310Z,5.57
2022-11-12T05:04:35.930Z,6.50
2022-11-12T05:07:24.951Z,6.00
2022-11-12T05:10:14.024Z,5.88
2022-11-12T05:13:06.152Z,6.55
2022-11-12T05:15:54.781Z,6.75
2022-11-12T05:18:43.272Z,6.60
2022-11-12T05:21:44.435Z,6.43
2022-11-12T05:24:41.933Z,6.53
2022-11-12T05:27:31.272Z,5.88
2022-11-12T05:30:22.309Z,5.70
2022-11-12T05:33:11.241Z,4.78
2022-11-12T05:36:00.511Z,5.47
2022-11-12T05:38:49.185Z,5.32
2022-11-12T05:41:58.260Z,4.25
2022-11-12T05:44:46.650Z,4.53
2022-11-12T05:47:37.690Z,4.43
2022-11-12T05:50:28.206Z,5.03
2022-11-12T05:53:23.535Z,5.18
2022-11-12T05:56:13.116Z,4.35
2022-11-12T05:59:01.888Z,5.18
2022-11-12T06:01:50.571Z,5.13
2022-11-12T06:04:41.569Z,5.23
2022-11-12T06:07:30.386Z,4.53
2022-11-12T06:10:20.625Z,4.70
2022-11-12T06:13:09.812Z,4.15
2022-11-12T06:15:59.245Z,3.80
2022-11-12T06:18:48.147Z,4.18
2022-11-12T06:21:39.516Z,3.72
2022-11-12T06:24:35.041Z,3.22
2022-11-12T06:30:13.768Z,3.08
2022-11-12T06:33:02.339Z,3.65
2022-11-12T06:35:50.970Z,4.43
2022-11-12T06:38:43.008Z,3.45
2022-11-12T06:41:31.868Z,3.53
2022-11-12T06:44:22.391Z,4.03
2022-11-12T06:47:11.192Z,4.07
2022-11-12T06:49:59.910Z,3.40
2022-11-12T06:52:49.343Z,3.70
2022-11-12T06:55:40.609Z,3.47
2022-11-12T06:58:29.309Z,3.20
2022-11-12T07:01:19.651Z,3.50
2022-11-12T07:04:08.056Z,3.70
2022-11-12T07:06:56.742Z,3.55
2022-11-12T07:09:45.908Z,4.43
2022-11-12T07:12:37.113Z,4.32
2022-11-12T07:15:25.641Z,4.25
2022-11-12T07:18:14.174Z,4.50
2022-11-12T07:21:04.924Z,4.93
2022-11-12T07:23:53.859Z,4.15
2022-11-12T07:26:47.273Z,4.50
2022-11-12T07:29:47.383Z,4.25
2022-11-12T07:32:42.831Z,4.75
2022-11-12T07:35:33.520Z,4.72
2022-11-12T07:38:23.222Z,4.13
2022-11-12T07:41:15.294Z,5.15
2022-11-12T07:44:04.042Z,4.55
2022-11-12T07:46:55.757Z,4.60
2022-11-12T07:49:44.819Z,4.90
2022-11-12T07:52:35.269Z,4.63
2022-11-12T07:55:23.663Z,6.85
2022-11-12T07:58:12.405Z,6.93
2022-11-12T08:01:01.336Z,4.72
2022-11-12T08:03:52.549Z,4.82
2022-11-12T08:06:41.949Z,5.63
2022-11-12T08:09:30.844Z,5.95
2022-11-12T08:12:19.502Z,6.25
2022-11-12T08:15:08.629Z,7.35
2022-11-12T08:17:57.543Z,6.07
2022-11-12T08:20:48.666Z,6.43
2022-11-12T08:23:37.621Z,6.57
2022-11-12T08:26:26.505Z,6.10
2022-11-12T08:29:15.185Z,6.85
2022-11-12T08:32:04.413Z,6.45
2022-11-12T08:34:52.867Z,7.30
2022-11-12T08:37:44.040Z,6.50
2022-11-12T08:40:34.612Z,6.88
2022-11-12T08:43:23.629Z,8.57
2022-11-12T08:46:12.464Z,7.85
2022-11-12T08:49:01.583Z,8.15
2022-11-12T08:51:50.154Z,7.70
2022-11-12T08:54:41.049Z,7.28
2022-11-12T08:57:29.793Z,6.78
2022-11-12T09:00:19.392Z,7.65
2022-11-12T09:03:10.063Z,7.55
2022-11-12T09:05:59.116Z,7.13
2022-11-12T09:08:47.728Z,6.78
2022-11-12T09:11:38.624Z,6.53
2022-11-12T09:14:27.195Z,6.43
2022-11-12T09:17:16.161Z,6.45
2022-11-12T09:20:04.520Z,6.15
2022-11-12T09:22:53.716Z,6.30
2022-11-12T09:25:43.083Z,5.38
2022-11-12T09:28:34.612Z,6.03
2022-11-12T09:31:25.667Z,5.70
2022-11-12T09:34:14.517Z,5.40
2022-11-12T09:37:03.154Z,5.35
2022-11-12T09:39:51.745Z,5.35
2022-11-12T09:42:40.464Z,4.70
2022-11-12T09:45:34.190Z,5.28
2022-11-12T09:48:28.531Z,5.43
2022-11-12T09:51:24.735Z,4.88
2022-11-12T09:54:23.568Z,4.18
2022-11-12T09:57:14.766Z,4.57
2022-11-12T10:00:03.527Z,4.93
2022-11-12T10:03:01.810Z,4.43
2022-11-12T10:05:55.065Z,4.20
2022-11-12T10:08:53.328Z,3.85
2022-11-12T10:12:18.308Z,3.17
2022-11-12T10:15:43.852Z,3.30
2022-11-12T10:18:47.034Z,4.00
2022-11-12T10:21:43.651Z,3.28
2022-11-12T10:24:39.136Z,3.67
2022-11-12T10:27:35.204Z,3.08
2022-11-12T10:30:25.393Z,3.00
2022-11-12T10:33:17.523Z,3.00
2022-11-12T10:36:27.233Z,2.83
2022-11-12T10:39:34.191Z,2.67
2022-11-12T10:42:24.807Z,2.78
2022-11-12T10:45:24.432Z,2.70
2022-11-12T10:48:27.594Z,2.78
2022-11-12T10:51:29.469Z,2.75
2022-11-12T10:54:31.720Z,2.90
2022-11-12T10:57:25.615Z,3.10
2022-11-12T11:00:24.303Z,2.93
2022-11-12T11:03:23.507Z,3.38
2022-11-12T11:06:27.468Z,3.13
2022-11-12T11:09:21.680Z,11.57
2022-11-12T11:12:25.787Z,4.37
2022-11-12T11:15:23.275Z,3.33
2022-11-12T11:18:14.195Z,3.25
2022-11-12T11:21:29.692Z,3.05
2022-11-12T11:24:28.314Z,2.92
2022-11-12T11:27:33.042Z,2.75
2022-11-12T11:30:23.056Z,2.70
2022-11-12T11:33:31.324Z,2.38
2022-11-12T11:36:33.169Z,1.98
2022-11-12T11:39:34.596Z,1.63
2022-11-12T11:42:41.574Z,1.58
2022-11-12T11:45:43.731Z,1.65
2022-11-12T11:48:43.561Z,2.10
2022-11-12T11:51:51.050Z,1.48
2022-11-12T11:54:55.377Z,1.55
2022-11-12T11:57:58.124Z,1.23
2022-11-12T12:00:55.370Z,1.38
2022-11-12T12:03:54.839Z,1.63
2022-11-12T12:06:52.892Z,1.45
2022-11-12T12:09:49.506Z,1.80
2022-11-12T12:12:52.744Z,1.60
2022-11-12T12:16:01.363Z,1.90
2022-11-12T12:18:58.709Z,2.22
2022-11-12T12:21:53.129Z,3.05
2022-11-12T12:24:50.361Z,2.88
2022-11-12T12:27:47.362Z,3.40
2022-11-12T12:30:39.483Z,4.25
2022-11-12T12:33:34.653Z,2.60
2022-11-12T12:39:21.765Z,2.20
2022-11-12T12:42:23.066Z,2.78
2022-11-12T12:45:38.653Z,2.65
2022-11-12T12:48:32.126Z,2.55
2022-11-12T12:51:20.717Z,2.72
2022-11-12T12:54:48.657Z,2.83
2022-11-12T12:57:41.163Z,3.45
2022-11-12T13:00:41.075Z,2.72
2022-11-12T13:03:55.604Z,3.20
2022-11-12T13:06:56.029Z,3.25
2022-11-12T13:09:44.986Z,3.00
2022-11-12T13:13:09.506Z,3.03
2022-11-12T13:16:02.011Z,3.33
2022-11-12T13:19:04.599Z,3.53
2022-11-12T13:22:37.351Z,3.35
2022-11-12T13:25:30.953Z,3.60
2022-11-12T13:28:19.576Z,3.83
2022-11-12T13:31:28.486Z,3.63
2022-11-12T13:34:23.857Z,4.15
2022-11-12T13:37:23.314Z,3.08
2022-11-12T13:40:17.028Z,3.60
2022-11-12T13:45:38.174Z,4.13
2022-11-12T13:48:29.835Z,3.25
2022-11-12T13:51:20.991Z,3.20
2022-11-12T13:54:24.833Z,3.00
2022-11-12T13:57:30.612Z,3.78
2022-11-12T14:00:25.026Z,2.90
2022-11-12T14:03:21.912Z,2.42
2022-11-12T14:06:18.739Z,2.47
2022-11-12T14:09:16.499Z,2.50
2022-11-12T14:12:20.562Z,2.03
2022-11-12T14:15:17.226Z,2.50
2022-11-12T14:18:09.432Z,2.53
2022-11-12T14:21:00.590Z,2.75
2022-11-12T14:23:50.197Z,2.10
2022-11-12T14:26:40.381Z,2.60
2022-11-12T14:29:34.611Z,2.20
2022-11-12T14:32:25.201Z,2.20
2022-11-12T14:35:21.135Z,2.40
2022-11-12T14:38:21.660Z,2.17
2022-11-12T14:41:13.057Z,2.22
2022-11-12T14:44:12.706Z,2.63
2022-11-12T14:47:02.963Z,2.20
2022-11-12T14:49:52.614Z,2.40
2022-11-12T14:52:44.880Z,1.70
2022-11-12T14:55:37.922Z,1.90
2022-11-12T14:58:28.002Z,1.88
2022-11-12T15:02:03.881Z,1.88
2022-11-12T15:04:39.718Z,2.00
2022-11-12T15:07:29.358Z,2.67
2022-11-12T15:10:33.546Z,2.95
2022-11-12T15:13:27.451Z,2.50
2022-11-12T15:16:21.464Z,2.92
2022-11-12T15:19:12.479Z,3.40
2022-11-12T15:22:03.312Z,4.18
2022-11-12T15:24:52.135Z,3.70
2022-11-12T15:27:43.322Z,5.20
2022-11-12T15:30:34.784Z,4.80
2022-11-12T15:33:25.813Z,5.13
2022-11-12T15:36:18.862Z,6.05
2022-11-12T15:39:15.135Z,5.55
2022-11-12T15:42:05.090Z,5.43
2022-11-12T15:44:58.338Z,5.90
2022-11-12T15:47:50.221Z,6.70
2022-11-12T15:50:39.165Z,6.55
2022-11-12T15:53:28.822Z,6.57
2022-11-12T15:56:21.972Z,7.00
2022-11-12T15:59:11.918Z,6.28
2022-11-12T16:02:00.495Z,7.68
2022-11-12T16:04:51.630Z,8.30
2022-11-12T16:07:40.194Z,13.30
2022-11-12T16:10:29.138Z,16.25
2022-11-12T16:13:18.954Z,17.15
2022-11-12T16:16:10.172Z,16.48
2022-11-12T16:18:58.933Z,15.45
2022-11-12T16:21:49.999Z,12.55
2022-11-12T16:24:38.811Z,10.32
2022-11-12T16:27:27.405Z,10.77
2022-11-12T16:30:19.644Z,11.85
2022-11-12T16:33:08.200Z,10.95
2022-11-12T16:35:56.848Z,11.35
2022-11-12T16:38:48.205Z,11.80
2022-11-12T16:41:37.042Z,12.80
2022-11-12T16:44:25.721Z,12.27
2022-11-12T16:47:14.595Z,12.15
2022-11-12T16:50:03.199Z,12.77
2022-11-12T16:52:52.798Z,12.52
2022-11-12T16:55:44.431Z,11.30
2022-11-12T16:58:35.118Z,11.00
2022-11-12T17:01:29.204Z,8.77
2022-11-12T17:04:17.756Z,9.27
2022-11-12T17:07:08.505Z,9.50
2022-11-12T17:09:57.186Z,7.75
2022-11-12T17:12:51.207Z,9.02
2022-11-12T17:15:40.194Z,9.10
2022-11-12T17:18:28.972Z,22.63
2022-11-12T17:21:19.475Z,12.00
2022-11-12T17:24:08.815Z,9.07
2022-11-12T17:26:57.800Z,8.27
2022-11-12T17:29:48.887Z,10.73
2022-11-12T17:32:37.731Z,7.97
2022-11-12T17:35:25.949Z,8.27
2022-11-12T17:38:15.505Z,8.50
2022-11-12T17:41:04.126Z,10.18
2022-11-12T17:43:57.864Z,10.50
2022-11-12T17:46:50.453Z,10.38
2022-11-12T17:49:39.161Z,10.75
2022-11-12T17:52:27.769Z,10.50
2022-11-12T17:55:16.236Z,10.75
2022-11-12T17:58:04.546Z,11.32
2022-11-12T18:00:54.479Z,12.05
2022-11-12T18:03:47.728Z,11.60
2022-11-12T18:06:38.109Z,11.70
2022-11-12T18:09:27.086Z,11.52
2022-11-12T18:12:15.719Z,11.40
2022-11-12T18:15:04.022Z,11.38
2022-11-12T18:17:52.801Z,11.38
2022-11-12T18:20:43.689Z,12.15
2022-11-12T18:23:32.164Z,11.80
2022-11-12T18:26:21.505Z,10.77
2022-11-12T18:29:10.417Z,10.55
2022-11-12T18:31:58.963Z,9.82
2022-11-12T18:34:47.207Z,9.60
2022-11-12T18:37:38.370Z,8.48
2022-11-12T18:40:27.083Z,9.27
2022-11-12T18:43:15.532Z,9.57
2022-11-12T18:46:04.343Z,10.82
2022-11-12T18:48:53.099Z,10.52
2022-11-12T18:51:42.242Z,10.20
2022-11-12T18:54:33.273Z,10.23
2022-11-12T18:57:22.481Z,10.48
2022-11-12T19:00:12.592Z,12.35
2022-11-12T19:03:00.816Z,15.25
2022-11-12T19:05:50.049Z,14.95
2022-11-12T19:08:38.402Z,12.57
2022-11-12T19:11:29.651Z,9.30
2022-11-12T19:14:18.199Z,9.93
2022-11-12T19:17:06.969Z,8.18
2022-11-12T19:19:55.738Z,8.40
2022-11-12T19:22:44.262Z,9.35
2022-11-12T19:25:32.746Z,8.57
2022-11-12T19:28:24.066Z,10.45
2022-11-12T19:31:16.628Z,10.95
2022-11-12T19:34:05.012Z,10.23
2022-11-12T19:37:12.035Z,10.55
2022-11-12T19:40:02.298Z,11.38
2022-11-12T19:42:50.841Z,10.75
2022-11-12T19:45:41.995Z,12.18
2022-11-12T19:48:31.241Z,12.85
2022-11-12T19:51:20.018Z,11.40
2022-11-12T19:54:08.749Z,11.02
2022-11-12T19:56:57.377Z,11.68
2022-11-12T19:59:45.931Z,11.25
2022-11-12T20:02:37.165Z,13.23
2022-11-12T20:05:25.713Z,14.82
2022-11-12T20:08:14.341Z,17.45
2022-11-12T20:11:04.386Z,17.25
2022-11-12T20:13:55.367Z,15.63
2022-11-12T20:16:44.168Z,13.75
2022-11-12T20:19:35.079Z,12.07
2022-11-12T20:22:26.657Z,13.48
2022-11-12T20:25:17.672Z,10.77
2022-11-12T20:28:06.219Z,10.38
2022-11-12T20:30:54.501Z,8.85
2022-11-12T20:33:43.713Z,10.73
2022-11-12T20:36:34.704Z,8.98
2022-11-12T20:39:24.085Z,10.77
2022-11-12T20:42:12.763Z,10.40
2022-11-12T20:45:01.227Z,10.95
2022-11-12T20:47:49.516Z,11.20
2022-11-12T20:50:40.046Z,10.38
2022-11-12T20:53:35.734Z,8.35
2022-11-12T20:56:25.781Z,8.75
2022-11-12T20:59:14.651Z,8.25
2022-11-12T21:02:03.303Z,9.50
2022-11-12T21:04:54.637Z,8.55
2022-11-12T21:07:42.868Z,9.02
2022-11-12T21:10:34.017Z,9.18
2022-11-12T21:13:23.660Z,9.40
2022-11-12T21:16:12.922Z,9.35
2022-11-12T21:19:03.410Z,7.97
2022-11-12T21:21:51.893Z,9.20
2022-11-12T21:24:40.805Z,8.98
2022-11-12T21:27:31.617Z,8.63
2022-11-12T21:30:20.133Z,8.75
2022-11-12T21:33:08.499Z,8.23
2022-11-12T21:35:57.688Z,8.85
2022-11-12T21:38:46.680Z,8.90
2022-11-12T21:41:35.283Z,8.77
2022-11-12T21:44:26.125Z,7.75
2022-11-12T21:47:15.310Z,9.10
2022-11-12T21:50:03.654Z,8.23
2022-11-12T21:52:52.696Z,8.90
2022-11-12T21:55:41.360Z,8.65
2022-11-12T21:58:32.425Z,8.50
2022-11-12T22:01:25.252Z,8.27
2022-11-12T22:04:18.187Z,8.90
2022-11-12T22:07:07.222Z,8.85
2022-11-12T22:09:57.043Z,8.40
2022-11-12T22:13:05.019Z,8.07
2022-11-12T22:15:54.213Z,7.88
2022-11-12T22:18:48.045Z,8.48
2022-11-12T22:21:40.124Z,8.30
2022-11-12T22:24:28.776Z,6.93
2022-11-12T22:27:17.640Z,7.63
2022-11-12T22:30:06.535Z,7.53
2022-11-12T22:32:55.339Z,8.20
2022-11-12T22:35:46.224Z,8.80
2022-11-12T22:38:39.064Z,8.63
2022-11-12T22:41:29.085Z,7.28
2022-11-12T22:44:17.698Z,7.95
2022-11-12T22:47:06.607Z,8.38
2022-11-12T22:49:55.203Z,8.18
2022-11-12T22:52:50.147Z,8.02
2022-11-12T22:55:39.182Z,6.78
2022-11-12T22:58:28.205Z,7.60
2022-11-12T23:01:23.212Z,7.13
2022-11-12T23:04:12.119Z,6.68
2022-11-12T23:07:00.725Z,6.68
2022-11-12T23:09:51.852Z,6.22
2022-11-12T23:12:40.552Z,6.72
2022-11-12T23:15:31.276Z,6.57
2022-11-12T23:18:19.630Z,8.30
2022-11-12T23:21:09.925Z,7.50
2022-11-12T23:24:00.016Z,6.60
2022-11-12T23:26:51.467Z,7.15
2022-11-12T23:29:40.011Z,6.38
2022-11-12T23:32:28.542Z,6.95
2022-11-12T23:35:17.203Z,6.47
2022-11-12T23:38:05.836Z,6.72
2022-11-12T23:40:57.567Z,6.30
2022-11-12T23:43:49.371Z,6.78
2022-11-12T23:46:38.300Z,6.35
2022-11-12T23:49:26.789Z,6.97
2022-11-12T23:52:15.201Z,6.13
2022-11-12T23:55:03.496Z,5.53
2022-11-12T23:57:54.739Z,7.55
